createdAt,value
2022-12-14T00:01:53.958Z,21.27
2022-12-14T00:03:55.312Z,21.21
2022-12-14T00:05:56.745Z,21.15
2022-12-14T00:07:58.077Z,21.07
2022-12-14T00:09:59.420Z,21.00
2022-12-14T00:12:00.755Z,20.95
2022-12-14T00:14:02.042Z,20.88
2022-12-14T00:16:03.370Z,20.81
2022-12-14T00:18:04.737Z,20.73
2022-12-14T00:20:06.057Z,20.65
2022-12-14T00:22:07.400Z,20.58
2022-12-14T00:24:08.696Z,20.53
2022-12-14T00:26:09.988Z,20.50
2022-12-14T00:28:11.691Z,20.54
2022-12-14T00:30:13.040Z,20.53
2022-12-14T00:32:14.337Z,20.53
2022-12-14T00:34:15.628Z,20.56
2022-12-14T00:36:16.972Z,20.61
2022-12-14T00:38:18.307Z,20.68
2022-12-14T00:40:19.598Z,20.74
2022-12-14T00:42:20.900Z,20.87
2022-12-14T00:44:22.188Z,20.99
2022-12-14T00:46:23.587Z,21.08
2022-12-14T00:48:25.314Z,21.18
2022-12-14T00:50:26.938Z,21.25
2022-12-14T00:52:28.242Z,21.32
2022-12-14T00:54:29.517Z,21.40
2022-12-14T00:56:30.821Z,21.45
2022-12-14T00:58:32.150Z,21.47
2022-12-14T01:00:33.453Z,21.49
2022-12-14T01:02:34.895Z,21.54
2022-12-14T01:04:36.369Z,21.53
2022-12-14T01:06:37.656Z,21.62
2022-12-14T01:08:38.936Z,21.55
2022-12-14T01:10:40.548Z,21.49
2022-12-14T01:12:41.841Z,21.44
2022-12-14T01:14:43.183Z,21.42
2022-12-14T01:16:47.177Z,21.40
2022-12-14T01:18:48.507Z,21.35
2022-12-14T01:20:49.803Z,21.29
2022-12-14T01:22:51.157Z,21.25
2022-12-14T01:24:52.480Z,21.21
2022-12-14T01:26:53.828Z,21.11
2022-12-14T01:28:57.173Z,21.01
2022-12-14T01:30:58.546Z,20.89
2022-12-14T01:33:00.828Z,20.80
2022-12-14T01:35:02.122Z,20.75
2022-12-14T01:37:03.488Z,20.69
2022-12-14T01:39:04.845Z,20.62
2022-12-14T01:41:06.171Z,20.56
2022-12-14T01:43:07.457Z,20.51
2022-12-14T01:45:08.740Z,20.48
2022-12-14T01:47:12.865Z,20.46
2022-12-14T01:49:14.268Z,20.46
2022-12-14T01:51:15.562Z,20.45
2022-12-14T01:53:16.849Z,20.54
2022-12-14T01:55:18.183Z,20.64
2022-12-14T01:57:19.489Z,20.71
2022-12-14T01:59:20.820Z,20.81
2022-12-14T02:01:22.164Z,20.89
2022-12-14T02:03:23.610Z,21.01
2022-12-14T02:05:25.006Z,21.11
2022-12-14T02:07:26.335Z,21.19
2022-12-14T02:09:27.883Z,21.28
2022-12-14T02:11:29.168Z,21.35
2022-12-14T02:13:30.848Z,21.37
2022-12-14T02:15:32.373Z,21.35
2022-12-14T02:17:33.663Z,21.36
2022-12-14T02:19:34.997Z,21.44
2022-12-14T02:21:36.839Z,21.50
2022-12-14T02:23:38.248Z,21.52
2022-12-14T02:25:39.556Z,21.55
2022-12-14T02:27:40.884Z,21.59
2022-12-14T02:29:42.208Z,21.51
2022-12-14T02:31:43.529Z,21.43
2022-12-14T02:33:44.843Z,21.36
2022-12-14T02:35:46.240Z,21.32
2022-12-14T02:37:49.023Z,21.26
2022-12-14T02:39:50.648Z,21.25
2022-12-14T02:41:51.981Z,21.23
2022-12-14T02:43:53.358Z,21.16
2022-12-14T02:45:54.649Z,21.09
2022-12-14T02:47:55.961Z,21.04
2022-12-14T02:49:57.257Z,20.93
2022-12-14T02:51:58.587Z,20.85
2022-12-14T02:53:59.992Z,20.80
2022-12-14T02:56:01.580Z,20.78
2022-12-14T02:58:02.907Z,20.69
2022-12-14T03:00:04.496Z,20.67
2022-12-14T03:02:05.937Z,20.65
2022-12-14T03:04:07.720Z,20.63
2022-12-14T03:06:14.634Z,20.63
2022-12-14T03:08:16.057Z,20.67
2022-12-14T03:10:17.379Z,20.71
2022-12-14T03:12:18.697Z,20.80
2022-12-14T03:14:20.069Z,20.89
2022-12-14T03:16:21.395Z,20.96
2022-12-14T03:18:22.781Z,21.04
2022-12-14T03:20:24.157Z,21.11
2022-12-14T03:22:25.456Z,21.21
2022-12-14T03:24:26.823Z,21.31
2022-12-14T03:26:28.109Z,21.40
2022-12-14T03:28:29.408Z,21.46
2022-12-14T03:30:58.152Z,21.51
2022-12-14T03:32:52.373Z,21.55
2022-12-14T03:34:53.786Z,21.57
2022-12-14T03:36:55.070Z,21.47
2022-12-14T03:38:56.401Z,21.49
2022-12-14T03:40:57.773Z,21.47
2022-12-14T03:42:59.095Z,21.30
2022-12-14T03:45:00.421Z,21.11
2022-12-14T03:47:01.807Z,20.96
2022-12-14T03:49:03.096Z,17.03
2022-12-14T03:51:04.389Z,17.50
2022-12-14T03:53:05.677Z,18.86
2022-12-14T03:55:06.971Z,19.57
2022-12-14T03:57:08.257Z,19.78
2022-12-14T03:59:09.548Z,19.86
2022-12-14T04:01:10.941Z,19.96
2022-12-14T04:03:12.293Z,20.05
2022-12-14T04:05:13.601Z,20.15
2022-12-14T04:07:14.936Z,20.29
2022-12-14T04:09:16.224Z,20.43
2022-12-14T04:11:36.308Z,20.55
2022-12-14T04:13:56.170Z,20.71
2022-12-14T04:16:16.069Z,20.83
2022-12-14T04:18:36.185Z,20.90
2022-12-14T04:20:37.525Z,20.98
2022-12-14T04:22:39.152Z,21.04
2022-12-14T04:24:59.216Z,21.05
2022-12-14T04:27:00.508Z,21.09
2022-12-14T04:29:20.641Z,21.13
2022-12-14T04:31:21.960Z,21.21
2022-12-14T04:33:55.524Z,21.27
2022-12-14T04:35:56.816Z,21.29
2022-12-14T04:37:58.282Z,21.31
2022-12-14T04:39:59.604Z,21.32
2022-12-14T04:42:00.890Z,21.31
2022-12-14T04:44:02.189Z,21.32
2022-12-14T04:46:03.616Z,21.33
2022-12-14T04:48:04.939Z,21.35
2022-12-14T04:50:06.229Z,21.31
2022-12-14T04:52:07.547Z,21.29
2022-12-14T04:54:08.837Z,20.39
2022-12-14T04:56:10.209Z,21.23
2022-12-14T04:58:11.536Z,21.20
2022-12-14T05:00:12.824Z,21.17
2022-12-14T05:02:17.334Z,21.09
2022-12-14T05:04:18.699Z,20.94
2022-12-14T05:06:20.000Z,20.83
2022-12-14T05:08:21.290Z,20.74
2022-12-14T05:10:22.582Z,20.64
2022-12-14T05:12:23.914Z,20.53
2022-12-14T05:14:25.199Z,20.45
2022-12-14T05:16:26.599Z,20.38
2022-12-14T05:18:27.936Z,20.29
2022-12-14T05:20:29.220Z,20.19
2022-12-14T05:22:30.549Z,20.13
2022-12-14T05:24:31.837Z,20.08
2022-12-14T05:26:33.142Z,20.05
2022-12-14T05:28:34.441Z,20.07
2022-12-14T05:30:35.759Z,20.11
2022-12-14T05:32:40.000Z,20.16
2022-12-14T05:34:41.329Z,20.27
2022-12-14T05:36:42.626Z,20.41
2022-12-14T05:38:43.953Z,20.51
2022-12-14T05:40:45.242Z,20.65
2022-12-14T05:42:49.858Z,20.76
2022-12-14T05:44:55.324Z,20.86
2022-12-14T05:46:56.653Z,20.90
2022-12-14T05:48:57.949Z,20.92
2022-12-14T05:50:59.238Z,20.98
2022-12-14T05:53:00.566Z,21.03
2022-12-14T05:55:04.514Z,21.09
2022-12-14T05:57:06.948Z,21.10
2022-12-14T05:59:08.235Z,21.15
2022-12-14T06:01:13.944Z,21.15
2022-12-14T06:03:18.433Z,21.18
2022-12-14T06:05:19.760Z,21.20
2022-12-14T06:07:26.019Z,21.21
2022-12-14T06:09:28.969Z,21.24
2022-12-14T06:11:30.260Z,21.24
2022-12-14T06:13:31.781Z,21.27
2022-12-14T06:15:34.226Z,21.26
2022-12-14T06:17:35.656Z,21.25
2022-12-14T06:19:37.576Z,21.22
2022-12-14T06:21:38.864Z,21.19
2022-12-14T06:23:40.247Z,21.12
2022-12-14T06:25:41.553Z,21.07
2022-12-14T06:27:42.881Z,21.01
2022-12-14T06:29:44.169Z,20.96
2022-12-14T06:31:45.765Z,20.90
2022-12-14T06:33:50.545Z,20.84
2022-12-14T06:35:51.849Z,20.76
2022-12-14T06:37:53.231Z,20.67
2022-12-14T06:39:54.827Z,20.58
2022-12-14T06:41:56.134Z,20.52
2022-12-14T06:43:57.465Z,20.46
2022-12-14T06:45:58.789Z,20.40
2022-12-14T06:48:00.128Z,20.36
2022-12-14T06:50:01.476Z,20.30
2022-12-14T06:52:02.757Z,20.27
2022-12-14T06:54:04.089Z,20.23
2022-12-14T06:56:05.391Z,20.21
2022-12-14T06:58:06.685Z,20.21
2022-12-14T07:00:08.023Z,20.22
2022-12-14T07:02:09.464Z,20.25
2022-12-14T07:04:10.881Z,20.33
2022-12-14T07:06:12.188Z,20.43
2022-12-14T07:08:13.481Z,20.53
2022-12-14T07:10:14.827Z,20.65
2022-12-14T07:12:16.112Z,20.78
2022-12-14T07:14:17.462Z,20.90
2022-12-14T07:16:18.898Z,21.04
2022-12-14T07:18:20.632Z,21.12
2022-12-14T07:20:22.045Z,21.24
2022-12-14T07:22:23.344Z,21.32
2022-12-14T07:24:24.641Z,21.40
2022-12-14T07:26:26.001Z,21.46
2022-12-14T07:28:27.285Z,21.46
2022-12-14T07:30:28.649Z,21.44
2022-12-14T07:32:30.083Z,21.43
2022-12-14T07:34:31.418Z,21.40
2022-12-14T07:36:33.036Z,21.36
2022-12-14T07:38:34.384Z,20.40
2022-12-14T07:40:35.707Z,21.22
2022-12-14T07:42:37.002Z,21.13
2022-12-14T07:44:38.452Z,21.07
2022-12-14T07:46:40.351Z,20.97
2022-12-14T07:48:41.723Z,20.90
2022-12-14T07:50:43.072Z,20.82
2022-12-14T07:52:48.089Z,20.74
2022-12-14T07:54:55.721Z,20.65
2022-12-14T07:56:57.110Z,20.58
2022-12-14T07:58:58.395Z,20.50
2022-12-14T08:00:59.728Z,20.43
2022-12-14T08:03:01.221Z,20.38
2022-12-14T08:05:04.420Z,20.32
2022-12-14T08:07:09.128Z,20.27
2022-12-14T08:09:10.561Z,20.23
2022-12-14T08:11:11.849Z,20.21
2022-12-14T08:13:13.137Z,20.19
2022-12-14T08:15:17.491Z,20.19
2022-12-14T08:17:18.800Z,20.22
2022-12-14T08:19:20.199Z,20.29
2022-12-14T08:21:22.204Z,20.36
2022-12-14T08:23:23.533Z,20.46
2022-12-14T08:25:24.867Z,20.60
2022-12-14T08:27:26.317Z,20.72
2022-12-14T08:29:27.625Z,20.81
2022-12-14T08:31:29.115Z,20.93
2022-12-14T08:33:30.706Z,21.01
2022-12-14T08:35:32.229Z,21.02
2022-12-14T08:37:33.558Z,21.07
2022-12-14T08:39:34.887Z,21.08
2022-12-14T08:41:36.280Z,21.08
2022-12-14T08:43:37.612Z,21.10
2022-12-14T08:45:38.980Z,21.13
2022-12-14T08:47:40.273Z,21.17
2022-12-14T08:49:41.569Z,21.16
2022-12-14T08:51:42.924Z,21.13
2022-12-14T08:53:44.218Z,21.14
2022-12-14T08:55:45.518Z,21.17
2022-12-14T08:57:46.815Z,21.19
2022-12-14T09:00:03.601Z,21.20
2022-12-14T09:02:05.037Z,21.19
2022-12-14T09:04:06.649Z,21.17
2022-12-14T09:06:08.086Z,21.15
2022-12-14T09:08:09.394Z,21.15
2022-12-14T09:10:11.115Z,21.12
2022-12-14T09:12:12.406Z,21.07
2022-12-14T09:14:13.745Z,21.00
2022-12-14T09:16:15.100Z,20.98
2022-12-14T09:18:16.548Z,20.94
2022-12-14T09:20:18.930Z,20.88
2022-12-14T09:22:20.638Z,20.84
2022-12-14T09:24:24.550Z,20.80
2022-12-14T09:26:25.847Z,20.76
2022-12-14T09:28:27.441Z,20.72
2022-12-14T09:30:28.765Z,20.69
2022-12-14T09:32:30.050Z,20.64
2022-12-14T09:34:31.332Z,20.59
2022-12-14T09:36:32.664Z,20.56
2022-12-14T09:38:33.982Z,20.53
2022-12-14T09:40:35.268Z,20.53
2022-12-14T09:42:36.639Z,20.50
2022-12-14T09:44:37.971Z,20.49
2022-12-14T09:46:39.296Z,20.49
2022-12-14T09:48:40.607Z,19.58
2022-12-14T09:50:41.923Z,20.49
2022-12-14T09:52:43.299Z,20.53
2022-12-14T09:54:44.789Z,20.56
2022-12-14T09:56:51.281Z,20.55
2022-12-14T09:58:52.896Z,20.59
2022-12-14T10:00:54.293Z,20.66
2022-12-14T10:02:56.906Z,20.70
2022-12-14T10:05:00.571Z,19.88
2022-12-14T10:07:01.860Z,20.74
2022-12-14T10:09:03.537Z,20.77
2022-12-14T10:11:05.121Z,20.83
2022-12-14T10:13:07.588Z,20.84
2022-12-14T10:15:09.026Z,20.86
2022-12-14T10:17:10.386Z,20.87
2022-12-14T10:19:11.907Z,20.90
2022-12-14T10:21:16.366Z,20.96
2022-12-14T10:23:22.776Z,20.95
2022-12-14T10:25:24.883Z,20.98
2022-12-14T10:27:26.180Z,20.96
2022-12-14T10:29:27.507Z,21.00
2022-12-14T10:31:28.828Z,21.00
2022-12-14T10:33:30.227Z,21.00
2022-12-14T10:35:31.524Z,20.99
2022-12-14T10:37:33.508Z,21.02
2022-12-14T10:39:34.908Z,21.02
2022-12-14T10:41:36.261Z,21.03
2022-12-14T10:43:37.562Z,21.00
2022-12-14T10:45:46.148Z,21.02
2022-12-14T10:47:47.513Z,21.00
2022-12-14T10:49:48.803Z,20.99
2022-12-14T10:51:50.103Z,20.94
2022-12-14T10:53:51.404Z,20.95
2022-12-14T10:55:52.730Z,20.95
2022-12-14T10:57:54.022Z,20.93
2022-12-14T11:00:07.941Z,20.91
2022-12-14T11:02:13.236Z,20.89
2022-12-14T11:04:14.708Z,20.88
2022-12-14T11:06:16.157Z,20.88
2022-12-14T11:08:17.448Z,20.85
2022-12-14T11:10:19.015Z,20.85
2022-12-14T11:12:20.555Z,20.87
2022-12-14T11:14:21.941Z,20.86
2022-12-14T11:16:23.318Z,20.82
2022-12-14T11:18:24.778Z,20.82
2022-12-14T11:20:26.128Z,20.83
2022-12-14T11:22:27.437Z,20.82
2022-12-14T11:24:28.733Z,20.79
2022-12-14T11:26:30.023Z,20.77
2022-12-14T11:28:36.977Z,20.77
2022-12-14T11:30:39.365Z,20.79
2022-12-14T11:32:40.664Z,20.78
2022-12-14T11:34:42.256Z,20.79
2022-12-14T11:36:43.557Z,20.81
2022-12-14T11:38:44.841Z,20.82
2022-12-14T11:40:46.140Z,20.82
2022-12-14T11:42:47.838Z,20.82
2022-12-14T11:44:49.916Z,20.83
2022-12-14T11:46:51.388Z,20.84
2022-12-14T11:48:52.793Z,20.83
2022-12-14T11:50:54.178Z,20.82
2022-12-14T11:52:55.469Z,20.80
2022-12-14T11:54:56.759Z,20.83
2022-12-14T11:56:58.104Z,20.81
2022-12-14T11:58:59.402Z,20.79
2022-12-14T12:01:00.723Z,20.82
2022-12-14T12:03:02.242Z,20.83
2022-12-14T12:05:03.663Z,20.81
2022-12-14T12:07:04.993Z,20.82
2022-12-14T12:09:06.301Z,20.80
2022-12-14T12:11:07.632Z,20.79
2022-12-14T12:13:08.926Z,20.78
2022-12-14T12:15:10.256Z,20.80
2022-12-14T12:17:11.660Z,20.76
2022-12-14T12:19:13.030Z,20.76
2022-12-14T12:21:14.338Z,20.72
2022-12-14T12:23:15.660Z,20.75
2022-12-14T12:25:26.741Z,20.73
2022-12-14T12:27:28.984Z,20.71
2022-12-14T12:29:30.288Z,20.72
2022-12-14T12:31:31.662Z,20.69
2022-12-14T12:33:33.141Z,20.70
2022-12-14T12:35:34.435Z,20.68
2022-12-14T12:37:36.333Z,20.65
2022-12-14T12:39:37.643Z,20.67
2022-12-14T12:41:38.940Z,20.67
2022-12-14T12:43:40.229Z,20.63
2022-12-14T12:45:41.614Z,20.63
2022-12-14T12:47:47.522Z,20.62
2022-12-14T12:49:49.473Z,20.65
2022-12-14T12:51:50.762Z,20.68
2022-12-14T12:53:52.041Z,20.67
2022-12-14T12:55:53.644Z,20.65
2022-12-14T12:57:54.929Z,20.69
2022-12-14T12:59:56.267Z,20.69
2022-12-14T13:01:57.688Z,20.72
2022-12-14T13:03:59.112Z,20.73
2022-12-14T13:06:00.401Z,20.76
2022-12-14T13:08:01.736Z,20.79
2022-12-14T13:10:05.792Z,20.78
2022-12-14T13:12:07.573Z,20.78
2022-12-14T13:14:08.877Z,20.79
2022-12-14T13:16:10.203Z,20.77
2022-12-14T13:18:12.236Z,20.79
2022-12-14T13:20:13.689Z,20.80
2022-12-14T13:22:15.306Z,20.80
2022-12-14T13:24:16.714Z,20.79
2022-12-14T13:26:48.532Z,20.73
2022-12-14T13:28:42.328Z,20.64
2022-12-14T13:30:43.651Z,20.51
2022-12-14T13:32:44.977Z,20.44
2022-12-14T13:34:46.270Z,20.35
2022-12-14T13:36:47.705Z,20.29
2022-12-14T13:38:48.992Z,20.26
2022-12-14T13:40:50.281Z,20.23
2022-12-14T13:42:52.534Z,20.24
2022-12-14T13:44:53.879Z,20.28
2022-12-14T13:46:55.273Z,20.29
2022-12-14T13:48:56.700Z,20.33
2022-12-14T13:51:01.828Z,20.38
2022-12-14T13:53:03.925Z,20.44
2022-12-14T13:55:05.443Z,20.51
2022-12-14T13:57:06.797Z,20.53
2022-12-14T13:59:08.089Z,20.58
2022-12-14T14:01:09.612Z,20.65
2022-12-14T14:03:11.141Z,20.68
2022-12-14T14:05:15.462Z,20.70
2022-12-14T14:07:16.752Z,20.73
2022-12-14T14:09:18.092Z,20.77
2022-12-14T14:11:38.390Z,20.82
2022-12-14T14:13:40.417Z,20.87
2022-12-14T14:16:04.048Z,20.95
2022-12-14T14:18:03.092Z,20.96
2022-12-14T14:20:05.138Z,20.99
2022-12-14T14:22:23.854Z,20.96
2022-12-14T14:24:27.637Z,20.98
2022-12-14T14:26:29.040Z,20.94
2022-12-14T14:28:30.629Z,20.95
2022-12-14T14:30:32.307Z,20.96
2022-12-14T14:32:33.872Z,20.93
2022-12-14T14:34:47.429Z,20.94
2022-12-14T14:36:48.728Z,20.97
2022-12-14T14:38:51.182Z,20.98
2022-12-14T14:41:15.610Z,20.96
2022-12-14T14:43:16.541Z,20.93
2022-12-14T14:45:17.840Z,20.89
2022-12-14T14:47:19.488Z,20.94
2022-12-14T14:49:20.895Z,20.94
2022-12-14T14:51:22.219Z,20.92
2022-12-14T14:53:23.506Z,20.88
2022-12-14T14:55:51.410Z,20.84
2022-12-14T14:57:46.284Z,20.84
2022-12-14T14:59:51.198Z,20.87
2022-12-14T15:01:53.083Z,20.87
2022-12-14T15:03:55.244Z,20.86
2022-12-14T15:05:56.791Z,20.83
2022-12-14T15:07:58.648Z,20.78
2022-12-14T15:09:59.969Z,20.78
2022-12-14T15:12:01.419Z,20.71
2022-12-14T15:14:02.793Z,20.63
2022-12-14T15:16:04.135Z,20.63
2022-12-14T15:18:05.542Z,20.55
2022-12-14T15:20:06.844Z,20.54
2022-12-14T15:22:08.170Z,20.50
2022-12-14T15:24:09.473Z,20.47
2022-12-14T15:26:16.226Z,20.38
2022-12-14T15:28:18.848Z,20.60
2022-12-14T15:30:20.150Z,20.87
2022-12-14T15:32:21.562Z,21.23
2022-12-14T15:34:22.849Z,21.70
2022-12-14T15:36:24.138Z,21.92
2022-12-14T15:38:25.476Z,21.92
2022-12-14T15:40:26.807Z,21.89
2022-12-14T15:42:28.155Z,21.79
2022-12-14T15:44:29.506Z,21.70
2022-12-14T15:46:30.853Z,21.69
2022-12-14T15:48:34.045Z,21.78
2022-12-14T15:50:35.374Z,21.91
2022-12-14T15:52:36.656Z,21.77
2022-12-14T15:54:38.182Z,21.90
2022-12-14T15:56:39.812Z,21.89
2022-12-14T15:58:41.132Z,21.88
2022-12-14T16:00:45.529Z,21.84
2022-12-14T16:02:49.897Z,21.80
2022-12-14T16:04:51.319Z,21.80
2022-12-14T16:06:52.633Z,21.78
2022-12-14T16:08:55.080Z,21.76
2022-12-14T16:10:56.377Z,21.84
2022-12-14T16:13:03.513Z,21.80
2022-12-14T16:15:04.810Z,21.79
2022-12-14T16:17:06.223Z,21.74
2022-12-14T16:19:25.923Z,21.80
2022-12-14T16:21:28.325Z,21.79
2022-12-14T16:23:30.183Z,21.82
2022-12-14T16:25:32.382Z,21.87
2022-12-14T16:27:33.674Z,21.64
2022-12-14T16:29:35.099Z,21.25
2022-12-14T16:31:37.111Z,21.05
2022-12-14T16:33:38.440Z,21.10
2022-12-14T16:35:40.228Z,21.14
2022-12-14T16:37:41.572Z,21.25
2022-12-14T16:39:42.853Z,21.22
2022-12-14T16:41:47.130Z,21.25
2022-12-14T16:43:49.452Z,21.26
2022-12-14T16:45:53.764Z,21.29
2022-12-14T16:47:55.310Z,21.33
2022-12-14T16:49:56.669Z,21.37
2022-12-14T16:52:07.317Z,21.42
2022-12-14T16:54:09.542Z,21.49
2022-12-14T16:56:13.501Z,21.71
2022-12-14T16:58:14.789Z,21.91
2022-12-14T17:00:16.085Z,22.04
2022-12-14T17:02:18.239Z,22.22
2022-12-14T17:04:19.767Z,22.08
2022-12-14T17:06:21.083Z,21.77
2022-12-14T17:08:25.337Z,21.92
2022-12-14T17:10:27.094Z,22.25
2022-12-14T17:12:28.419Z,22.36
2022-12-14T17:14:29.745Z,22.41
2022-12-14T17:16:31.053Z,22.41
2022-12-14T17:18:32.640Z,22.40
2022-12-14T17:20:36.231Z,22.40
2022-12-14T17:22:37.569Z,22.32
2022-12-14T17:24:38.913Z,22.27
2022-12-14T17:26:40.212Z,22.27
2022-12-14T17:28:41.551Z,22.27
2022-12-14T17:30:43.022Z,22.20
2022-12-14T17:32:44.420Z,22.36
2022-12-14T17:34:45.738Z,22.24
2022-12-14T17:36:47.155Z,22.20
2022-12-14T17:38:48.535Z,22.23
2022-12-14T17:40:49.897Z,22.06
2022-12-14T17:42:51.239Z,21.94
2022-12-14T17:44:52.597Z,21.78
2022-12-14T17:46:53.912Z,21.69
2022-12-14T17:49:02.878Z,21.62
2022-12-14T17:51:10.124Z,21.56
2022-12-14T17:53:11.444Z,21.52
2022-12-14T17:55:12.862Z,21.25
2022-12-14T17:57:14.213Z,21.12
2022-12-14T17:59:15.523Z,21.36
2022-12-14T18:01:16.977Z,21.41
2022-12-14T18:03:18.503Z,21.44
2022-12-14T18:05:19.930Z,21.48
2022-12-14T18:07:24.085Z,21.60
2022-12-14T18:09:25.404Z,21.62
2022-12-14T18:11:27.125Z,21.61
2022-12-14T18:13:31.178Z,21.59
2022-12-14T18:15:38.806Z,21.58
2022-12-14T18:17:40.121Z,21.49
2022-12-14T18:19:41.606Z,21.62
2022-12-14T18:21:42.909Z,21.57
2022-12-14T18:23:45.790Z,21.66
2022-12-14T18:25:48.023Z,21.72
2022-12-14T18:27:50.333Z,21.68
2022-12-14T18:29:54.201Z,21.76
2022-12-14T18:31:55.595Z,21.80
2022-12-14T18:33:56.955Z,21.84
2022-12-14T18:35:58.296Z,22.02
2022-12-14T18:37:59.594Z,21.75
2022-12-14T18:40:03.655Z,21.84
2022-12-14T18:42:05.263Z,22.02
2022-12-14T18:44:06.650Z,21.71
2022-12-14T18:46:08.015Z,21.54
2022-12-14T18:48:18.223Z,21.76
2022-12-14T18:50:19.549Z,22.09
2022-12-14T18:52:20.915Z,22.12
2022-12-14T18:54:22.196Z,22.21
2022-12-14T18:56:23.789Z,22.29
2022-12-14T18:58:25.131Z,22.27
2022-12-14T19:00:26.476Z,22.24
2022-12-14T19:02:28.851Z,22.24
2022-12-14T19:04:30.373Z,22.20
2022-12-14T19:06:46.955Z,22.20
2022-12-14T19:08:51.015Z,22.13
2022-12-14T19:10:52.305Z,22.10
2022-12-14T19:13:02.377Z,22.01
2022-12-14T19:15:03.657Z,21.97
2022-12-14T19:17:07.718Z,22.00
2022-12-14T19:19:09.039Z,21.95
2022-12-14T19:21:10.521Z,21.90
2022-12-14T19:23:14.776Z,21.83
2022-12-14T19:25:16.103Z,21.75
2022-12-14T19:27:30.200Z,21.74
2022-12-14T19:29:38.764Z,21.63
2022-12-14T19:31:40.103Z,21.61
2022-12-14T19:33:41.473Z,21.20
2022-12-14T19:35:43.101Z,20.94
2022-12-14T19:37:44.506Z,20.78
2022-12-14T19:39:49.540Z,20.69
2022-12-14T19:41:50.893Z,20.59
2022-12-14T19:43:55.128Z,20.51
2022-12-14T19:45:56.493Z,20.48
2022-12-14T19:47:57.788Z,20.49
2022-12-14T19:50:01.754Z,20.55
2022-12-14T19:52:05.749Z,20.67
2022-12-14T19:54:07.078Z,20.78
2022-12-14T19:56:08.586Z,20.94
2022-12-14T19:58:09.941Z,21.10
2022-12-14T20:00:11.253Z,21.23
2022-12-14T20:02:13.038Z,21.32
2022-12-14T20:04:14.544Z,21.40
2022-12-14T20:06:15.867Z,21.50
2022-12-14T20:08:17.246Z,21.77
2022-12-14T20:10:18.582Z,22.02
2022-12-14T20:12:22.918Z,22.09
2022-12-14T20:14:27.189Z,22.18
2022-12-14T20:16:28.737Z,22.24
2022-12-14T20:18:30.114Z,22.31
2022-12-14T20:20:31.440Z,22.33
2022-12-14T20:22:33.103Z,22.34
2022-12-14T20:24:34.394Z,22.45
2022-12-14T20:26:35.735Z,22.45
2022-12-14T20:28:40.071Z,22.43
2022-12-14T20:30:41.378Z,22.48
2022-12-14T20:32:42.677Z,22.19
2022-12-14T20:34:44.024Z,22.11
2022-12-14T20:36:45.316Z,22.23
2022-12-14T20:38:49.534Z,22.28
2022-12-14T20:40:50.852Z,22.22
2022-12-14T20:42:52.144Z,22.20
2022-12-14T20:44:53.469Z,22.26
2022-12-14T20:46:54.855Z,22.11
2022-12-14T20:48:56.823Z,22.17
2022-12-14T20:50:59.348Z,21.98
2022-12-14T20:53:00.911Z,21.97
2022-12-14T20:55:02.220Z,21.86
2022-12-14T20:57:07.485Z,21.82
2022-12-14T20:59:08.829Z,21.68
2022-12-14T21:01:10.208Z,21.59
2022-12-14T21:03:11.841Z,21.51
2022-12-14T21:05:13.217Z,21.44
2022-12-14T21:07:14.640Z,21.50
2022-12-14T21:09:15.980Z,21.57
2022-12-14T21:11:35.872Z,17.54
2022-12-14T21:13:40.217Z,17.28
2022-12-14T21:15:42.406Z,19.03
2022-12-14T21:17:43.756Z,19.90
2022-12-14T21:19:45.044Z,20.40
2022-12-14T21:21:51.678Z,20.74
2022-12-14T21:23:54.711Z,20.99
2022-12-14T21:25:56.143Z,21.11
2022-12-14T21:27:57.498Z,21.26
2022-12-14T21:30:00.140Z,21.39
2022-12-14T21:32:01.567Z,21.45
2022-12-14T21:34:02.889Z,21.51
2022-12-14T21:36:04.212Z,21.57
2022-12-14T21:38:05.543Z,21.61
2022-12-14T21:40:06.839Z,21.60
2022-12-14T21:42:13.022Z,21.62
2022-12-14T21:44:14.740Z,21.61
2022-12-14T21:46:18.936Z,21.64
2022-12-14T21:48:20.326Z,21.63
2022-12-14T21:50:21.631Z,21.63
2022-12-14T21:52:23.043Z,21.61
2022-12-14T21:54:24.389Z,21.62
2022-12-14T21:56:44.265Z,21.59
2022-12-14T21:58:49.855Z,21.58
2022-12-14T22:00:54.337Z,21.51
2022-12-14T22:02:55.772Z,21.50
2022-12-14T22:04:57.209Z,21.44
2022-12-14T22:06:58.565Z,21.45
2022-12-14T22:08:59.992Z,21.40
2022-12-14T22:11:01.340Z,21.35
2022-12-14T22:13:02.741Z,21.28
2022-12-14T22:15:04.040Z,21.29
2022-12-14T22:17:05.427Z,21.28
2022-12-14T22:19:06.868Z,21.23
2022-12-14T22:21:08.181Z,21.24
2022-12-14T22:23:09.550Z,21.15
2022-12-14T22:25:10.890Z,21.08
2022-12-14T22:27:12.245Z,21.02
2022-12-14T22:29:13.594Z,20.94
2022-12-14T22:31:14.895Z,20.88
2022-12-14T22:33:16.188Z,20.81
2022-12-14T22:35:18.187Z,20.73
2022-12-14T22:37:19.648Z,20.68
2022-12-14T22:39:21.005Z,20.63
2022-12-14T22:41:22.368Z,20.61
2022-12-14T22:43:28.841Z,20.65
2022-12-14T22:45:32.003Z,20.66
2022-12-14T22:47:33.383Z,20.69
2022-12-14T22:49:34.709Z,20.68
2022-12-14T22:51:36.000Z,20.75
2022-12-14T22:53:37.288Z,20.76
2022-12-14T22:55:38.680Z,20.79
2022-12-14T22:57:41.721Z,20.84
2022-12-14T22:59:43.169Z,20.91
2022-12-14T23:01:49.543Z,20.98
2022-12-14T23:03:51.647Z,21.06
2022-12-14T23:05:58.755Z,21.09
2022-12-14T23:08:03.169Z,21.17
2022-12-14T23:10:23.208Z,21.21
2022-12-14T23:12:42.969Z,21.19
2022-12-14T23:15:02.865Z,21.23
2022-12-14T23:17:22.669Z,21.26
2022-12-14T23:19:42.585Z,21.28
2022-12-14T23:22:02.471Z,21.26
2022-12-14T23:24:22.473Z,21.24
2022-12-14T23:26:42.401Z,21.21
2022-12-14T23:29:02.334Z,21.18
2022-12-14T23:31:22.362Z,21.17
2022-12-14T23:33:42.590Z,21.13
2022-12-14T23:36:02.463Z,21.08
2022-12-14T23:38:22.506Z,21.03
2022-12-14T23:40:42.430Z,20.96
2022-12-14T23:43:02.396Z,20.92
2022-12-14T23:45:22.355Z,20.88
2022-12-14T23:47:42.246Z,20.87
2022-12-14T23:50:02.197Z,20.85
2022-12-14T23:52:22.033Z,20.85
2022-12-14T23:54:41.712Z,20.85
2022-12-14T23:57:01.534Z,20.80
2022-12-14T23:59:24.879Z,20.73
